Myrtle Beach International Airport Myrtle Beach US
ICAO: KMYR
IATA: MYR
Category: Large
Scheduled Services: Yes

Elevation: 25 ft
TransAlt. 18000 ft.

Airport Communications:
APP/DEP:119.2
ATIS:123.925
AWOS 3:124.5
CLNC DEL:119.7
CTAF:128.45
GND:120.3
TWR:128.45
UNICOM:122.95

KMYR Zoom In..

If you have problems with the map follow the link
https://www.worldairports.se/pages/airport.php?
ICAO=KMYR

Runways:

(A) RW 18 length 9503 ft width 150 ft
ILS 109.50 / hdg 174

(B) RW 36 length 9503 ft width 150 ft
ILS 111.90 / hdg 354

Location; KMYR
Day. 14 / Time. 22.01 Zulu
* Altimeter: 30.05
* Temperature: 17° c. 62.6°f.
* Wind from: 080° Speed 08 kn.
Dewpoint: 17° c.
Visibility: 3 Statute Miles.
Clouds: Broken 300 ft.
Clouds: Broken 2000 ft.
Clouds: Overcast 6500 ft.
Conditions: Rain.Conditions: Mist.

KMYR 142201Z 08008KT 3SM RA BR BKN003 BKN020 OVC065 17/17 A3005 RMK AO2 CIG 002V007 P0001


Wind From 080°
Speed 08 kn.

 
 
jpsmedia.com for Web Design worldairports.se 2018   terms of use